Main page
METAR-TAF:

METAR-TAF

Airports :

Military air base

Tulln an der Donau, Austria

latitude: 48-19N, longitude: 016-07E, elevation: 175 m

METAR: missing

Time: 05:20 (04:20 UTC)

Forecast

The report was made 17 hours and 5 minutes ago, at 11:15 UTC
Forecast valid from 20 at 12 UTC to 20 at 21 UTC
Wind 10 kt from the West/Southwest
Visibility 10 km or more
Few clouds at a height of 4000 ft
Broken clouds at a height of 10000 ft
Temporary
from 20 at 12 UTC to 20 at 16 UTC
Broken clouds at a height of 5000 ft
Becoming
from 20 at 14 UTC to 20 at 16 UTC
Wind 4 kt from variable directions

TAF: LOXT 201115Z 2012/2021 25010KT 9999 FEW040 BKN100 TEMPO 2012/2016 BKN050 BECMG 2014/2016 VRB04KT

Weather observations and forecasts of more than 4000 airports (METAR and TAF reports).

The available stations are represented by yellow and red dots on the map.

Hover mouse over dot to see the name of the station.

Then click to see weather observations and forecasts.

To change the map : click on the green buttons with a black cross to zoom in, on the green button with a dash to zoom out, or on the green arrows for adjacent maps.


METAR-TAF: